createdAt,value
2016-04-03T00:00:06.743Z,948.79
2016-04-03T00:01:06.700Z,948.83
2016-04-03T00:02:06.639Z,948.78
2016-04-03T00:03:06.595Z,948.74
2016-04-03T00:04:06.536Z,948.71
2016-04-03T00:05:06.491Z,948.7
2016-04-03T00:06:06.478Z,948.67
2016-04-03T00:07:06.387Z,948.67
2016-04-03T00:08:06.328Z,948.63
2016-04-03T00:09:06.283Z,948.64
2016-04-03T00:10:06.224Z,948.64
2016-04-03T00:11:06.163Z,948.7
2016-04-03T00:12:06.119Z,948.76
2016-04-03T00:13:06.060Z,948.73
2016-04-03T00:14:06.016Z,948.69
2016-04-03T00:15:05.955Z,948.72
2016-04-03T00:16:05.911Z,948.72
2016-04-03T00:17:05.852Z,948.74
2016-04-03T00:18:05.792Z,948.78
2016-04-03T00:19:05.749Z,948.84
2016-04-03T00:20:05.688Z,948.82
2016-04-03T00:21:05.644Z,948.79
2016-04-03T00:22:05.600Z,948.76
2016-04-03T00:23:05.540Z,948.78
2016-04-03T00:24:05.480Z,948.81
2016-04-03T00:25:05.435Z,948.8
2016-04-03T00:26:05.377Z,948.82
2016-04-03T00:27:05.332Z,948.82
2016-04-03T00:28:05.273Z,948.82
2016-04-03T00:29:05.213Z,948.84
2016-04-03T00:30:05.168Z,948.82
2016-04-03T00:31:05.124Z,948.82
2016-04-03T00:32:05.064Z,948.82
2016-04-03T00:33:05.004Z,948.84
2016-04-03T00:34:04.960Z,948.82
2016-04-03T00:35:04.900Z,948.71
2016-04-03T00:36:04.840Z,948.67
2016-04-03T00:37:04.796Z,948.69
2016-04-03T00:38:04.752Z,948.67
2016-04-03T00:39:04.692Z,948.64
2016-04-03T00:40:04.633Z,948.69
2016-04-03T00:41:04.589Z,948.73
2016-04-03T00:42:04.529Z,948.68
2016-04-03T00:43:04.500Z,948.72
2016-04-03T00:44:04.425Z,948.65
2016-04-03T00:45:04.380Z,948.62
2016-04-03T00:46:04.321Z,948.56
2016-04-03T00:47:04.261Z,948.47
2016-04-03T00:48:04.216Z,948.6
2016-04-03T00:49:04.157Z,948.56
2016-04-03T00:50:04.112Z,948.56
2016-04-03T00:51:04.052Z,948.52
2016-04-03T00:52:04.008Z,948.57
2016-04-03T00:53:03.949Z,948.55
2016-04-03T00:54:03.889Z,948.46
2016-04-03T00:55:03.845Z,948.36
2016-04-03T00:56:03.785Z,948.49
2016-04-03T00:57:03.740Z,948.53
2016-04-03T00:58:03.696Z,948.39
2016-04-03T00:59:03.637Z,948.4
2016-04-03T01:00:03.576Z,948.43
2016-04-03T01:01:03.533Z,948.41
2016-04-03T01:02:03.473Z,948.5
2016-04-03T01:03:03.413Z,948.55
2016-04-03T01:04:03.370Z,948.55
2016-04-03T01:05:03.310Z,948.53
2016-04-03T01:06:03.265Z,948.5
2016-04-03T01:07:03.206Z,948.45
2016-04-03T01:08:03.156Z,948.43
2016-04-03T01:09:03.093Z,948.4
2016-04-03T01:10:03.048Z,948.42
2016-04-03T01:11:03.004Z,948.37
2016-04-03T01:12:02.929Z,948.36
2016-04-03T01:13:02.899Z,948.36
2016-04-03T01:14:02.840Z,948.28
2016-04-03T01:15:02.779Z,948.37
2016-04-03T01:16:02.737Z,948.4
2016-04-03T01:17:02.664Z,948.36
2016-04-03T01:18:02.620Z,948.35
2016-04-03T01:19:02.577Z,948.36
2016-04-03T01:20:02.516Z,948.37
2016-04-03T01:21:02.457Z,948.39
2016-04-03T01:22:02.412Z,948.37
2016-04-03T01:23:02.352Z,948.31
2016-04-03T01:24:02.293Z,948.32
2016-04-03T01:25:02.249Z,948.31
2016-04-03T01:26:02.189Z,948.33
2016-04-03T01:27:02.145Z,948.33
2016-04-03T01:28:02.085Z,948.35
2016-04-03T01:29:02.041Z,948.33
2016-04-03T01:30:01.981Z,948.27
2016-04-03T01:31:01.921Z,948.33
2016-04-03T01:32:01.877Z,948.27
2016-04-03T01:33:01.832Z,948.29
2016-04-03T01:34:01.773Z,948.28
2016-04-03T01:35:01.712Z,948.32
2016-04-03T01:36:01.668Z,948.3
2016-04-03T01:37:01.609Z,948.29
2016-04-03T01:38:01.564Z,948.31
2016-04-03T01:39:01.506Z,948.29
2016-04-03T01:40:01.445Z,948.27
2016-04-03T01:41:01.401Z,948.26
2016-04-03T01:42:01.341Z,948.25
2016-04-03T01:43:01.297Z,948.29
2016-04-03T01:44:01.253Z,948.29
2016-04-03T01:45:01.177Z,948.24
2016-04-03T01:46:01.133Z,948.25
2016-04-03T01:47:01.073Z,948.23
2016-04-03T01:48:01.030Z,948.14
2016-04-03T01:49:00.970Z,948.12
2016-04-03T01:50:00.910Z,948.08
2016-04-03T01:51:00.881Z,948.06
2016-04-03T01:52:00.805Z,948.05
2016-04-03T01:53:00.761Z,948.07
2016-04-03T01:54:00.702Z,948.04
2016-04-03T01:55:00.658Z,948.06
2016-04-03T01:56:00.597Z,948.06
2016-04-03T01:57:00.554Z,948.07
2016-04-03T01:58:00.493Z,947.97
2016-04-03T01:59:00.434Z,947.95
2016-04-03T02:00:00.390Z,947.94
2016-04-03T02:01:00.330Z,947.93
2016-04-03T02:02:00.286Z,947.95
2016-04-03T02:03:00.226Z,947.96
2016-04-03T02:04:00.182Z,947.94
2016-04-03T02:05:00.121Z,947.95
2016-04-03T02:06:00.078Z,947.99
2016-04-03T02:07:00.018Z,947.93
2016-04-03T02:07:59.962Z,947.97
2016-04-03T02:08:59.903Z,947.99
2016-04-03T02:09:59.859Z,948.04
2016-04-03T02:10:59.800Z,948.07
2016-04-03T02:11:59.756Z,948.04
2016-04-03T02:12:59.695Z,948.05
2016-04-03T02:13:59.651Z,948.01
2016-04-03T02:14:59.591Z,947.99
2016-04-03T02:15:59.547Z,947.94
2016-04-03T02:16:59.487Z,947.93
2016-04-03T02:17:59.443Z,948.01
2016-04-03T02:18:59.383Z,947.99
2016-04-03T02:19:59.323Z,948.01
2016-04-03T02:20:59.279Z,948.03
2016-04-03T02:21:59.219Z,948.04
2016-04-03T02:22:59.175Z,948.03
2016-04-03T02:23:59.116Z,948.02
2016-04-03T02:24:59.071Z,948.05
2016-04-03T02:25:59.011Z,948.02
2016-04-03T02:26:58.967Z,948.08
2016-04-03T02:27:58.907Z,948.05
2016-04-03T02:28:58.848Z,948.04
2016-04-03T02:29:58.804Z,948.05
2016-04-03T02:30:58.743Z,948.08
2016-04-03T02:31:58.699Z,948.1
2016-04-03T02:32:58.639Z,948.12
2016-04-03T02:33:58.595Z,948.09
2016-04-03T02:34:58.535Z,948.03
2016-04-03T02:35:58.476Z,947.98
2016-04-03T02:36:58.448Z,947.99
2016-04-03T02:37:58.372Z,948.02
2016-04-03T02:38:58.328Z,948.03
2016-04-03T02:39:58.267Z,948.09
2016-04-03T02:40:58.223Z,948.05
2016-04-03T02:41:58.164Z,948.04
2016-04-03T02:42:58.103Z,948.05
2016-04-03T02:43:58.059Z,948.08
2016-04-03T02:44:58.000Z,948.04
2016-04-03T02:45:57.956Z,948.05
2016-04-03T02:46:57.897Z,948
2016-04-03T02:47:57.852Z,947.97
2016-04-03T02:48:57.792Z,947.97
2016-04-03T02:49:57.732Z,947.94
2016-04-03T02:50:57.688Z,948
2016-04-03T02:51:57.643Z,948
2016-04-03T02:52:57.583Z,948.08
2016-04-03T02:53:57.524Z,948.07
2016-04-03T02:54:57.480Z,948
2016-04-03T02:55:57.421Z,948.02
2016-04-03T02:56:57.376Z,947.98
2016-04-03T02:57:57.316Z,948.05
2016-04-03T02:58:57.257Z,948.04
2016-04-03T02:59:57.213Z,948.05
2016-04-03T03:00:57.152Z,948.05
2016-04-03T03:01:57.108Z,948.05
2016-04-03T03:02:57.048Z,948.09
2016-04-03T03:03:57.004Z,948.1
2016-04-03T03:04:56.945Z,948.07
2016-04-03T03:05:56.900Z,948.05
2016-04-03T03:06:56.840Z,948.03
2016-04-03T03:07:56.795Z,948.07
2016-04-03T03:08:56.736Z,948.08
2016-04-03T03:09:56.676Z,948.08
2016-04-03T03:10:56.632Z,948.09
2016-04-03T03:11:56.573Z,948.06
2016-04-03T03:12:56.528Z,948.06
2016-04-03T03:13:56.469Z,948.1
2016-04-03T03:14:56.424Z,948.17
2016-04-03T03:15:56.380Z,948.23
2016-04-03T03:16:56.320Z,948.24
2016-04-03T03:17:56.260Z,948.29
2016-04-03T03:18:56.201Z,948.25
2016-04-03T03:19:56.156Z,948.16
2016-04-03T03:20:56.097Z,948.19
2016-04-03T03:21:56.053Z,948.2
2016-04-03T03:22:55.993Z,948.23
2016-04-03T03:23:55.949Z,948.21
2016-04-03T03:24:55.888Z,948.22
2016-04-03T03:25:55.844Z,948.21
2016-04-03T03:26:55.785Z,948.24
2016-04-03T03:27:55.724Z,948.25
2016-04-03T03:28:55.680Z,948.24
2016-04-03T03:29:55.621Z,948.22
2016-04-03T03:30:55.592Z,948.21
2016-04-03T03:31:55.518Z,948.14
2016-04-03T03:32:55.473Z,948.11
2016-04-03T03:33:55.413Z,948.14
2016-04-03T03:34:55.354Z,948.19
2016-04-03T03:35:55.309Z,948.22
2016-04-03T03:36:55.249Z,948.14
2016-04-03T03:37:55.204Z,948.18
2016-04-03T03:38:55.145Z,948.23
2016-04-03T03:39:55.101Z,948.3
2016-04-03T03:40:55.041Z,948.33
2016-04-03T03:41:54.997Z,948.32
2016-04-03T03:42:54.936Z,948.44
2016-04-03T03:43:54.892Z,948.38
2016-04-03T03:44:54.833Z,948.38
2016-04-03T03:45:54.789Z,948.31
2016-04-03T03:46:54.729Z,948.29
2016-04-03T03:47:54.669Z,948.24
2016-04-03T03:48:54.625Z,948.24
2016-04-03T03:49:54.565Z,948.22
2016-04-03T03:50:54.521Z,948.25
2016-04-03T03:51:54.461Z,948.27
2016-04-03T03:52:54.416Z,948.3
2016-04-03T03:53:54.357Z,948.26
2016-04-03T03:54:54.313Z,948.26
2016-04-03T03:55:54.253Z,948.23
2016-04-03T03:56:54.210Z,948.26
2016-04-03T03:57:54.150Z,948.26
2016-04-03T03:58:54.105Z,948.27
2016-04-03T03:59:54.061Z,948.24
2016-04-03T04:00:54.001Z,948.22
2016-04-03T04:01:53.941Z,948.18
2016-04-03T04:02:53.882Z,948.17
2016-04-03T04:03:53.868Z,948.22
2016-04-03T04:04:53.777Z,948.22
2016-04-03T04:05:53.717Z,948.21
2016-04-03T04:06:53.674Z,948.22
2016-04-03T04:07:53.614Z,948.23
2016-04-03T04:08:53.570Z,948.17
2016-04-03T04:09:53.510Z,948.18
2016-04-03T04:10:53.465Z,948.17
2016-04-03T04:11:53.406Z,948.21
2016-04-03T04:12:53.361Z,948.29
2016-04-03T04:13:53.301Z,948.31
2016-04-03T04:14:53.258Z,948.36
2016-04-03T04:15:53.197Z,948.38
2016-04-03T04:16:53.138Z,948.33
2016-04-03T04:17:53.093Z,948.36
2016-04-03T04:18:53.033Z,948.37
2016-04-03T04:19:52.974Z,948.36
2016-04-03T04:20:52.930Z,948.32
2016-04-03T04:21:52.870Z,948.32
2016-04-03T04:22:52.826Z,948.32
2016-04-03T04:23:52.766Z,948.3
2016-04-03T04:24:52.722Z,948.25
2016-04-03T04:25:52.662Z,948.24
2016-04-03T04:26:52.602Z,948.21
2016-04-03T04:27:52.558Z,948.27
2016-04-03T04:28:52.498Z,948.3
2016-04-03T04:29:52.455Z,948.36
2016-04-03T04:30:52.394Z,948.37
2016-04-03T04:31:52.350Z,948.41
2016-04-03T04:32:52.291Z,948.39
2016-04-03T04:33:52.230Z,948.46
2016-04-03T04:34:52.187Z,948.47
2016-04-03T04:35:52.126Z,948.45
2016-04-03T04:36:52.082Z,948.4
2016-04-03T04:37:52.023Z,948.39
2016-04-03T04:38:51.978Z,948.39
2016-04-03T04:39:51.918Z,948.38
2016-04-03T04:40:51.858Z,948.39
2016-04-03T04:41:51.814Z,948.4
2016-04-03T04:42:51.754Z,948.39
2016-04-03T04:43:51.695Z,948.39
2016-04-03T04:44:51.651Z,948.39
2016-04-03T04:45:51.591Z,948.39
2016-04-03T04:46:51.547Z,948.39
2016-04-03T04:47:51.486Z,948.45
2016-04-03T04:48:51.427Z,948.47
2016-04-03T04:49:51.383Z,948.47
2016-04-03T04:50:51.323Z,948.49
2016-04-03T04:51:51.278Z,948.52
2016-04-03T04:52:51.235Z,948.52
2016-04-03T04:53:51.158Z,948.52
2016-04-03T04:54:51.115Z,948.52
2016-04-03T04:55:51.055Z,948.53
2016-04-03T04:56:51.010Z,948.58
2016-04-03T04:57:50.952Z,948.57
2016-04-03T04:58:50.907Z,948.55
2016-04-03T04:59:50.847Z,948.63
2016-04-03T05:00:50.788Z,948.55
2016-04-03T05:01:50.727Z,948.51
2016-04-03T05:02:50.683Z,948.55
2016-04-03T05:03:50.623Z,948.5
2016-04-03T05:04:50.579Z,948.49
2016-04-03T05:05:50.520Z,948.53
2016-04-03T05:06:50.476Z,948.51
2016-04-03T05:07:50.416Z,948.55
2016-04-03T05:08:50.356Z,948.5
2016-04-03T05:09:50.312Z,948.52
2016-04-03T05:10:50.251Z,948.5
2016-04-03T05:11:50.207Z,948.46
2016-04-03T05:12:50.148Z,948.48
2016-04-03T05:13:50.103Z,948.48
2016-04-03T05:14:50.033Z,948.46
2016-04-03T05:15:49.962Z,948.53
2016-04-03T05:16:49.906Z,948.5
2016-04-03T05:17:49.835Z,948.51
2016-04-03T05:18:49.781Z,948.48
2016-04-03T05:19:49.716Z,948.47
2016-04-03T05:20:49.653Z,948.49
2016-04-03T05:21:49.605Z,948.52
2016-04-03T05:22:49.540Z,948.55
2016-04-03T05:23:49.494Z,948.56
2016-04-03T05:24:49.448Z,948.62
2016-04-03T05:25:49.385Z,948.58
2016-04-03T05:26:49.324Z,948.58
2016-04-03T05:27:49.278Z,948.56
2016-04-03T05:28:49.217Z,948.55
2016-04-03T05:29:49.156Z,948.55
2016-04-03T05:30:49.111Z,948.61
2016-04-03T05:31:49.050Z,948.62
2016-04-03T05:32:49.006Z,948.66
2016-04-03T05:33:48.962Z,948.69
2016-04-03T05:34:48.886Z,948.75
2016-04-03T05:35:48.841Z,948.77
2016-04-03T05:36:48.781Z,948.76
2016-04-03T05:37:48.721Z,948.73
2016-04-03T05:38:48.676Z,948.72
2016-04-03T05:39:48.632Z,948.74
2016-04-03T05:40:48.571Z,948.73
2016-04-03T05:41:48.512Z,948.65
2016-04-03T05:42:48.468Z,948.67
2016-04-03T05:43:48.408Z,948.71
2016-04-03T05:44:48.364Z,948.72
2016-04-03T05:45:48.319Z,948.71
2016-04-03T05:46:48.259Z,948.7
2016-04-03T05:47:48.200Z,948.71
2016-04-03T05:48:48.139Z,948.69
2016-04-03T05:49:48.095Z,948.64
2016-04-03T05:50:48.036Z,948.64
2016-04-03T05:51:47.976Z,948.6
2016-04-03T05:52:47.932Z,948.62
2016-04-03T05:53:47.872Z,948.61
2016-04-03T05:54:47.828Z,948.62
2016-04-03T05:55:47.769Z,948.61
2016-04-03T05:56:47.724Z,948.6
2016-04-03T05:57:47.664Z,948.64
2016-04-03T05:58:47.605Z,948.62
2016-04-03T05:59:47.561Z,948.66
2016-04-03T06:00:47.500Z,948.66
2016-04-03T06:01:47.457Z,948.63
2016-04-03T06:02:47.396Z,948.66
2016-04-03T06:03:47.352Z,948.66
2016-04-03T06:04:47.293Z,948.63
2016-04-03T06:05:47.249Z,948.61
2016-04-03T06:06:47.188Z,948.63
2016-04-03T06:07:47.144Z,948.67
2016-04-03T06:08:47.085Z,948.67
2016-04-03T06:09:47.040Z,948.65
2016-04-03T06:10:46.981Z,948.65
2016-04-03T06:11:46.921Z,948.68
2016-04-03T06:12:46.876Z,948.7
2016-04-03T06:13:46.817Z,948.72
2016-04-03T06:14:46.757Z,948.74
2016-04-03T06:15:46.712Z,948.74
2016-04-03T06:16:46.668Z,948.77
2016-04-03T06:17:46.609Z,948.75
2016-04-03T06:18:46.564Z,948.73
2016-04-03T06:19:46.520Z,948.72
2016-04-03T06:20:46.445Z,948.74
2016-04-03T06:21:46.401Z,948.73
2016-04-03T06:22:46.341Z,948.75
2016-04-03T06:23:46.297Z,948.73
2016-04-03T06:24:46.253Z,948.73
2016-04-03T06:25:46.193Z,948.76
2016-04-03T06:26:46.133Z,948.7
2016-04-03T06:27:46.089Z,948.73
2016-04-03T06:28:46.030Z,948.74
2016-04-03T06:29:45.985Z,948.7
2016-04-03T06:30:45.925Z,948.75
2016-04-03T06:31:45.881Z,948.74
2016-04-03T06:32:45.821Z,948.7
2016-04-03T06:33:45.761Z,948.7
2016-04-03T06:34:45.733Z,948.73
2016-04-03T06:35:45.673Z,948.72
2016-04-03T06:36:45.613Z,948.71
2016-04-03T06:37:45.554Z,948.69
2016-04-03T06:38:45.509Z,948.68
2016-04-03T06:39:45.465Z,948.68
2016-04-03T06:40:45.405Z,948.69
2016-04-03T06:41:45.345Z,948.71
2016-04-03T06:42:45.301Z,948.73
2016-04-03T06:43:45.241Z,948.69
2016-04-03T06:44:45.197Z,948.68
2016-04-03T06:45:45.137Z,948.67
2016-04-03T06:46:45.093Z,948.66
2016-04-03T06:47:45.049Z,948.69
2016-04-03T06:48:44.990Z,948.67
2016-04-03T06:49:44.929Z,948.62
2016-04-03T06:50:44.901Z,948.65
2016-04-03T06:51:44.825Z,948.66
2016-04-03T06:52:44.797Z,948.74
2016-04-03T06:53:44.722Z,948.68
2016-04-03T06:54:44.677Z,948.71
2016-04-03T06:55:44.617Z,948.73
2016-04-03T06:56:44.573Z,948.7
2016-04-03T06:57:44.529Z,948.73
2016-04-03T06:58:44.470Z,948.73
2016-04-03T06:59:44.409Z,948.7
2016-04-03T07:00:44.366Z,948.71
2016-04-03T07:01:44.321Z,948.69
2016-04-03T07:02:44.277Z,948.68
2016-04-03T07:03:44.233Z,948.75
2016-04-03T07:04:44.157Z,948.67
2016-04-03T07:05:44.113Z,948.73
2016-04-03T07:06:44.053Z,948.71
2016-04-03T07:07:44.009Z,948.74
2016-04-03T07:08:43.949Z,948.71
2016-04-03T07:09:43.905Z,948.74
2016-04-03T07:10:43.845Z,948.71
2016-04-03T07:11:43.817Z,948.71
2016-04-03T07:12:43.741Z,948.7
2016-04-03T07:13:43.697Z,948.68
2016-04-03T07:14:43.654Z,948.75
2016-04-03T07:15:43.594Z,948.75
2016-04-03T07:16:43.549Z,948.72
2016-04-03T07:17:43.505Z,948.76
2016-04-03T07:18:43.446Z,948.73
2016-04-03T07:19:43.385Z,948.77
2016-04-03T07:20:43.341Z,948.71
2016-04-03T07:21:43.282Z,948.74
2016-04-03T07:22:43.237Z,948.73
2016-04-03T07:23:43.193Z,948.73
2016-04-03T07:24:43.133Z,948.77
2016-04-03T07:25:43.089Z,948.76
2016-04-03T07:26:43.061Z,948.78
2016-04-03T07:27:42.984Z,948.78
2016-04-03T07:28:42.941Z,948.8
2016-04-03T07:29:42.881Z,948.77
2016-04-03T07:30:42.836Z,948.78
2016-04-03T07:31:42.777Z,948.8
2016-04-03T07:32:42.733Z,948.82
2016-04-03T07:33:42.705Z,948.82
2016-04-03T07:34:42.645Z,948.82
2016-04-03T07:35:42.586Z,948.8
2016-04-03T07:36:42.525Z,948.8
2016-04-03T07:37:42.481Z,948.76
2016-04-03T07:38:42.422Z,948.78
2016-04-03T07:39:42.377Z,948.73
2016-04-03T07:40:42.349Z,948.77
2016-04-03T07:41:42.272Z,948.75
2016-04-03T07:42:42.229Z,948.77
2016-04-03T07:43:42.169Z,948.79
2016-04-03T07:44:42.124Z,948.8
2016-04-03T07:45:42.065Z,948.76
2016-04-03T07:46:42.021Z,948.77
2016-04-03T07:47:41.976Z,948.8
2016-04-03T07:48:41.932Z,948.78
2016-04-03T07:49:41.872Z,948.76
2016-04-03T07:50:41.812Z,948.78
2016-04-03T07:51:41.768Z,948.78
2016-04-03T07:52:41.724Z,948.75
2016-04-03T07:53:41.680Z,948.79
2016-04-03T07:54:41.620Z,948.78
2016-04-03T07:55:41.576Z,948.79
2016-04-03T07:56:41.517Z,948.81
2016-04-03T07:57:41.472Z,948.83
2016-04-03T07:58:41.412Z,948.83
2016-04-03T07:59:41.368Z,948.85
2016-04-03T08:00:41.323Z,948.85
2016-04-03T08:01:41.264Z,948.89
2016-04-03T08:02:41.219Z,948.89
2016-04-03T08:03:41.176Z,948.85
2016-04-03T08:04:41.116Z,948.9
2016-04-03T08:05:41.072Z,948.89
2016-04-03T08:06:41.028Z,948.91
2016-04-03T08:07:40.967Z,948.9
2016-04-03T08:08:40.924Z,948.89
2016-04-03T08:09:40.863Z,948.95
2016-04-03T08:10:40.819Z,948.97
2016-04-03T08:11:40.775Z,948.99
2016-04-03T08:12:40.716Z,949.01
2016-04-03T08:13:40.671Z,949.01
2016-04-03T08:14:40.627Z,949.09
2016-04-03T08:15:40.583Z,949.05
2016-04-03T08:16:40.523Z,949.04
2016-04-03T08:17:40.479Z,949.06
2016-04-03T08:18:40.434Z,948.96
2016-04-03T08:19:40.374Z,948.95
2016-04-03T08:20:40.331Z,948.92
2016-04-03T08:21:40.286Z,948.88
2016-04-03T08:22:40.227Z,948.91
2016-04-03T08:23:40.182Z,948.92
2016-04-03T08:24:40.138Z,948.88
2016-04-03T08:25:40.079Z,948.92
2016-04-03T08:26:40.035Z,948.91
2016-04-03T08:27:39.990Z,948.92
2016-04-03T08:28:39.946Z,948.9
2016-04-03T08:29:39.887Z,948.93
2016-04-03T08:30:39.842Z,948.88
2016-04-03T08:31:39.798Z,948.84
2016-04-03T08:32:39.739Z,948.85
2016-04-03T08:33:39.694Z,948.83
2016-04-03T08:34:39.665Z,948.83
2016-04-03T08:35:39.590Z,948.82
2016-04-03T08:36:39.545Z,948.79
2016-04-03T08:37:39.502Z,948.75
2016-04-03T08:38:39.457Z,948.73
2016-04-03T08:39:39.397Z,948.7
2016-04-03T08:40:39.353Z,948.73
2016-04-03T08:41:39.308Z,948.76
2016-04-03T08:42:39.265Z,948.73
2016-04-03T08:43:39.205Z,948.73
2016-04-03T08:44:39.161Z,948.72
2016-04-03T08:45:39.116Z,948.75
2016-04-03T08:46:39.072Z,948.72
2016-04-03T08:47:39.028Z,948.73
2016-04-03T08:48:38.968Z,948.74
2016-04-03T08:49:38.924Z,948.75
2016-04-03T08:50:38.864Z,948.73
2016-04-03T08:51:38.820Z,948.75
2016-04-03T08:52:38.776Z,948.74
2016-04-03T08:53:38.731Z,948.76
2016-04-03T08:54:38.687Z,948.72
2016-04-03T08:55:38.643Z,948.74
2016-04-03T08:56:38.583Z,948.7
2016-04-03T08:57:38.540Z,948.71
2016-04-03T08:58:38.495Z,948.7
2016-04-03T08:59:38.436Z,948.69
2016-04-03T09:00:38.391Z,948.72
2016-04-03T09:01:38.347Z,948.72
2016-04-03T09:02:38.303Z,948.74
2016-04-03T09:03:38.242Z,948.72
2016-04-03T09:04:38.199Z,948.75
2016-04-03T09:05:38.170Z,948.74
2016-04-03T09:06:38.111Z,948.76
2016-04-03T09:07:38.047Z,948.75
2016-04-03T09:08:38.013Z,948.75
2016-04-03T09:09:37.954Z,948.77
2016-04-03T09:10:37.910Z,948.76
2016-04-03T09:11:37.865Z,948.75
2016-04-03T09:12:37.821Z,948.76
2016-04-03T09:13:37.761Z,948.71
2016-04-03T09:14:37.717Z,948.73
2016-04-03T09:15:37.673Z,948.74
2016-04-03T09:16:37.645Z,948.69
2016-04-03T09:17:37.570Z,948.68
2016-04-03T09:18:37.525Z,948.65
2016-04-03T09:19:37.496Z,948.67
2016-04-03T09:20:37.453Z,948.66
2016-04-03T09:21:37.392Z,948.65
2016-04-03T09:22:37.333Z,948.64
2016-04-03T09:23:37.288Z,948.69
2016-04-03T09:24:37.244Z,948.66
2016-04-03T09:25:37.199Z,948.64
2016-04-03T09:26:37.155Z,948.65
2016-04-03T09:27:37.111Z,948.6
2016-04-03T09:28:37.052Z,948.66
2016-04-03T09:29:37.008Z,948.59
2016-04-03T09:30:36.963Z,948.6
2016-04-03T09:31:36.919Z,948.61
2016-04-03T09:32:36.874Z,948.63
2016-04-03T09:33:36.816Z,948.62
2016-04-03T09:34:36.771Z,948.6
2016-04-03T09:35:36.727Z,948.57
2016-04-03T09:36:36.682Z,948.6
2016-04-03T09:37:36.638Z,948.57
2016-04-03T09:38:36.581Z,948.55
2016-04-03T09:39:36.536Z,948.53
2016-04-03T09:40:36.492Z,948.53
2016-04-03T09:41:36.432Z,948.51
2016-04-03T09:42:36.387Z,948.53
2016-04-03T09:43:36.344Z,948.53
2016-04-03T09:44:36.300Z,948.51
2016-04-03T09:45:36.256Z,948.54
2016-04-03T09:46:36.195Z,948.56
2016-04-03T09:47:36.151Z,948.54
2016-04-03T09:48:36.561Z,948.53
2016-04-03T09:49:36.063Z,948.56
2016-04-03T09:50:36.019Z,948.57
2016-04-03T09:51:35.975Z,948.51
2016-04-03T09:52:35.915Z,948.53
2016-04-03T09:53:35.887Z,948.5
2016-04-03T09:54:35.827Z,948.47
2016-04-03T09:55:35.782Z,948.46
2016-04-03T09:56:35.722Z,948.43
2016-04-03T09:57:35.678Z,948.41
2016-04-03T09:58:35.634Z,948.36
2016-04-03T09:59:35.590Z,948.33
2016-04-03T10:00:35.546Z,948.32
2016-04-03T10:01:35.502Z,948.3
2016-04-03T10:02:35.468Z,948.33
2016-04-03T10:03:35.660Z,948.32
2016-04-03T10:04:35.399Z,948.29
2016-04-03T10:05:35.316Z,948.28
2016-04-03T10:06:35.281Z,948.26
2016-04-03T10:07:35.221Z,948.23
2016-04-03T10:08:35.176Z,948.25
2016-04-03T10:09:35.132Z,948.24
2016-04-03T10:10:35.087Z,948.23
2016-04-03T10:11:35.045Z,948.19
2016-04-03T10:12:35.000Z,948.2
2016-04-03T10:13:34.956Z,948.18
2016-04-03T10:14:34.912Z,948.16
2016-04-03T10:15:34.851Z,948.16
2016-04-03T10:16:34.808Z,948.16
2016-04-03T10:17:34.794Z,948.14
2016-04-03T10:18:34.734Z,948.12
2016-04-03T10:19:34.706Z,948.14
2016-04-03T10:20:34.647Z,948.12
2016-04-03T10:21:34.586Z,948.17
2016-04-03T10:22:34.542Z,948.16
2016-04-03T10:23:34.498Z,948.14
2016-04-03T10:24:34.455Z,948.14
2016-04-03T10:25:34.410Z,948.13
2016-04-03T10:26:34.366Z,948.13
2016-04-03T10:27:34.321Z,948.14
2016-04-03T10:28:34.277Z,948.07
2016-04-03T10:29:34.233Z,948.04
2016-04-03T10:30:34.189Z,948.07
2016-04-03T10:31:34.145Z,948.06
2016-04-03T10:32:34.101Z,948.08
2016-04-03T10:33:34.057Z,948.05
2016-04-03T10:34:34.012Z,948.1
2016-04-03T10:35:33.968Z,948.12
2016-04-03T10:36:33.923Z,948.13
2016-04-03T10:37:33.879Z,948.15
2016-04-03T10:38:33.835Z,948.15
2016-04-03T10:39:33.791Z,948.15
2016-04-03T10:40:33.748Z,948.14
2016-04-03T10:41:33.703Z,948.06
2016-04-03T10:42:33.659Z,948.1
2016-04-03T10:43:33.709Z,948.05
2016-04-03T10:44:33.587Z,948.03
2016-04-03T10:45:33.542Z,948
2016-04-03T10:46:33.498Z,948.01
2016-04-03T10:47:33.470Z,948.02
2016-04-03T10:48:33.440Z,948.01
2016-04-03T10:49:33.365Z,948.03
2016-04-03T10:50:33.320Z,948
2016-04-03T10:51:33.277Z,947.99
2016-04-03T10:52:33.232Z,947.94
2016-04-03T10:53:33.188Z,947.95
2016-04-03T10:54:33.144Z,947.94
2016-04-03T10:55:33.100Z,947.9
2016-04-03T10:56:33.056Z,947.88
2016-04-03T10:57:33.011Z,947.87
2016-04-03T10:58:32.967Z,947.83
2016-04-03T10:59:32.938Z,947.82
2016-04-03T11:00:32.894Z,947.8
2016-04-03T11:01:32.865Z,947.75
2016-04-03T11:02:32.806Z,947.71
2016-04-03T11:03:32.762Z,947.7
2016-04-03T11:04:32.733Z,947.72
2016-04-03T11:05:32.674Z,947.67
2016-04-03T11:06:32.630Z,947.65
2016-04-03T11:07:32.624Z,947.64
2016-04-03T11:08:32.564Z,947.6
2016-04-03T11:09:32.504Z,947.59
2016-04-03T11:10:32.460Z,947.59
2016-04-03T11:11:32.417Z,947.55
2016-04-03T11:12:32.373Z,947.54
2016-04-03T11:13:32.328Z,947.59
2016-04-03T11:14:32.284Z,947.53
2016-04-03T11:15:32.255Z,947.58
2016-04-03T11:16:32.211Z,947.6
2016-04-03T11:17:32.166Z,947.59
2016-04-03T11:18:32.122Z,947.58
2016-04-03T11:19:32.078Z,947.59
2016-04-03T11:20:32.034Z,947.62
2016-04-03T11:21:31.989Z,947.66
2016-04-03T11:22:31.946Z,947.68
2016-04-03T11:23:31.902Z,947.66
2016-04-03T11:24:31.872Z,947.64
2016-04-03T11:25:32.016Z,947.57
2016-04-03T11:26:31.785Z,947.57
2016-04-03T11:27:31.741Z,947.52
2016-04-03T11:28:31.697Z,947.47
2016-04-03T11:29:31.683Z,947.49
2016-04-03T11:30:31.608Z,947.46
2016-04-03T11:31:31.580Z,947.44
2016-04-03T11:32:31.566Z,947.48
2016-04-03T11:33:31.522Z,947.48
2016-04-03T11:34:31.446Z,947.47
2016-04-03T11:35:31.418Z,947.46
2016-04-03T11:36:31.359Z,947.45
2016-04-03T11:37:31.362Z,947.47
2016-04-03T11:38:31.286Z,947.49
2016-04-03T11:39:31.288Z,947.45
2016-04-03T11:40:31.198Z,947.46
2016-04-03T11:41:31.231Z,947.46
2016-04-03T11:42:31.140Z,947.4
2016-04-03T11:43:31.064Z,947.44
2016-04-03T11:44:31.020Z,947.38
2016-04-03T11:45:30.992Z,947.39
2016-04-03T11:46:30.948Z,947.39
2016-04-03T11:47:30.904Z,947.36
2016-04-03T11:48:30.859Z,947.39
2016-04-03T11:49:30.831Z,947.38
2016-04-03T11:50:30.772Z,947.34
2016-04-03T11:51:30.728Z,947.33
2016-04-03T11:52:30.683Z,947.35
2016-04-03T11:53:30.655Z,947.3
2016-04-03T11:54:30.611Z,947.3
2016-04-03T11:55:30.566Z,947.35
2016-04-03T11:56:30.522Z,947.33
2016-04-03T11:57:30.508Z,947.27
2016-04-03T11:58:30.449Z,947.3
2016-04-03T11:59:30.404Z,947.28
2016-04-03T12:00:30.360Z,947.23
2016-04-03T12:01:30.317Z,947.25
2016-04-03T12:02:30.272Z,947.24
2016-04-03T12:03:30.259Z,947.19
2016-04-03T12:04:30.185Z,947.24
2016-04-03T12:05:30.141Z,947.22
2016-04-03T12:06:30.111Z,947.19
2016-04-03T12:07:30.067Z,947.2
2016-04-03T12:08:30.023Z,947.18
2016-04-03T12:09:29.994Z,947.12
2016-04-03T12:10:29.951Z,947.12
2016-04-03T12:11:29.907Z,947.09
2016-04-03T12:12:29.862Z,947.07
2016-04-03T12:13:29.818Z,947.09
2016-04-03T12:14:29.789Z,947.05
2016-04-03T12:15:29.745Z,947.05
2016-04-03T12:16:29.701Z,947.09
2016-04-03T12:17:29.673Z,947.03
2016-04-03T12:18:29.628Z,947.03
2016-04-03T12:19:29.567Z,947.02
2016-04-03T12:20:29.540Z,946.99
2016-04-03T12:21:29.495Z,946.93
2016-04-03T12:22:29.451Z,946.96
2016-04-03T12:23:29.406Z,946.9
2016-04-03T12:24:29.378Z,946.91
2016-04-03T12:25:29.334Z,946.89
2016-04-03T12:26:29.289Z,946.9
2016-04-03T12:27:29.247Z,946.9
2016-04-03T12:28:29.202Z,946.9
2016-04-03T12:29:29.189Z,946.86
2016-04-03T12:30:29.130Z,946.84